This is the latest recevied weather packets stored in our database for station/object XE2KK-10. If no packets are shown the sender has not sent any weather packets the latest 1 day(s).
| Time | Temp. | Humidity | Pressure | Rain* | Wind** | Luminosity | Snow |
|---|---|---|---|---|---|---|---|
| 1778081653 | 28.89° C | 65% | 1010.4 hPa | 0 mm | - | 493 W/m² | - |
| 1778081353 | 28.89° C | 66% | 1010.4 hPa | 0 mm | - | 634 W/m² | - |
| 1778081053 | 28.33° C | 68% | 1010.6 hPa | 0 mm | - | 600 W/m² | - |
| 1778079853 | 28.33° C | 69% | 1010.6 hPa | 0 mm | - | 490 W/m² | - |
| 1778079553 | 27.78° C | 71% | 1010.3 hPa | 0 mm | - | 511 W/m² | - |
| 1778079253 | 28.33° C | 71% | 1010.5 hPa | 0 mm | - | 434 W/m² | - |
| 1778078053 | 27.22° C | 75% | 1010.5 hPa | 0 mm | - | 407 W/m² | - |
| 1778077753 | 27.22° C | 76% | 1010.6 hPa | 0 mm | - | 370 W/m² | - |
| 1778077453 | 27.22° C | 75% | 1010.6 hPa | 0 mm | - | 356 W/m² | - |
| 1778076544 | 26.67° C | 78% | 1010.5 hPa | 0 mm | - | 269 W/m² | - |
| 1778075353 | 26.11° C | 79% | 1010.3 hPa | 0 mm | - | 180 W/m² | - |
| 1778074753 | 26.11° C | 78% | 1010.2 hPa | 0 mm | - | 184 W/m² | - |
| 1778073553 | 26.11° C | 77% | 1010 hPa | 0 mm | - | 107 W/m² | - |
| 1778073253 | 26.67° C | 69% | 1010 hPa | 0 mm | - | 99 W/m² | - |
| 1778072953 | 26.67° C | 63% | 1009.9 hPa | 0 mm | - | 87 W/m² | - |
| 1778072352 | 26.11° C | 63% | 1009.8 hPa | 0 mm | - | 60 W/m² | - |
| 1778071753 | 25.56° C | 64% | 1009.7 hPa | 0 mm | - | 45 W/m² | - |
| 1778071453 | 25° C | 64% | 1009.5 hPa | 0 mm | - | 39 W/m² | - |
| 1778071153 | 25° C | 65% | 1009.4 hPa | 0 mm | - | 32 W/m² | - |
| 1778070853 | 25° C | 65% | 1009.4 hPa | 0 mm | - | 26 W/m² | - |
| 1778070553 | 25° C | 65% | 1009.4 hPa | 0 mm | - | 23 W/m² | - |
| 1778070253 | 25° C | 66% | 1009.6 hPa | 0 mm | - | 17 W/m² | - |
| 1778069053 | 24.44° C | 75% | 1009.2 hPa | 0 mm | - | 2 W/m² | - |
| 1778068753 | 24.44° C | 74% | 1009.1 hPa | 0 mm | - | 0 W/m² | - |
| 1778068453 | 24.44° C | 75% | 1008.8 hPa | 0 mm | - | 0 W/m² | - |
* Rain latest hour (hover to see other rain measurements)
** Current wind speed in m/s (hover to see current wind gust speed)